Time,TemperatureF,DewpointF,PressureIn,WindDirection,WindDirectionDegrees,WindSpeedMPH,WindSpeedGustMPH,Humidity,HourlyPrecipIn,Conditions,Clouds,dailyrainin,SoftwareType,DateUTC
2013-09-23 00:03:00,48.9,42.0,29.90,NW,316,0.0,3.0,77,0.00,,,0.44,weatherlink.com 1.10,2013-09-23 04:03:00,
2013-09-23 00:18:00,48.6,42.0,29.90,NW,311,0.0,3.0,77,0.00,,,0.44,weatherlink.com 1.10,2013-09-23 04:18:00,
2013-09-23 00:33:00,48.3,42.0,29.90,WNW,300,0.0,2.0,78,0.00,,,0.00,weatherlink.com 1.10,2013-09-23 04:33:00,
2013-09-23 00:48:00,48.1,41.0,29.90,North,9,0.0,3.0,77,0.00,,,0.00,weatherlink.com 1.10,2013-09-23 04:48:00,
2013-09-23 01:03:00,47.7,41.0,29.91,North,352,0.0,2.0,77,0.00,,,0.00,weatherlink.com 1.10,2013-09-23 05:03:00,
2013-09-23 01:33:00,46.5,41.0,29.92,South,184,2.0,2.0,80,0.00,,,0.00,weatherlink.com 1.10,2013-09-23 05:33:00,
2013-09-23 01:48:00,46.0,40.0,29.92,SSW,205,0.0,3.0,79,0.00,,,0.00,weatherlink.com 1.10,2013-09-23 05:48:00,
2013-09-23 02:03:00,45.0,40.0,29.92,WNW,282,0.0,0.0,81,0.00,,,0.00,weatherlink.com 1.10,2013-09-23 06:03:00,
2013-09-23 02:18:00,45.2,40.0,29.92,WNW,301,0.0,3.0,81,0.00,,,0.00,weatherlink.com 1.10,2013-09-23 06:18:00,
2013-09-23 02:33:00,45.9,40.0,29.92,NNW,338,0.0,1.0,79,0.00,,,0.00,weatherlink.com 1.10,2013-09-23 06:33:00,
2013-09-23 02:48:00,46.1,40.0,29.92,WNW,296,0.0,1.0,78,0.00,,,0.00,weatherlink.com 1.10,2013-09-23 06:48:00,
2013-09-23 03:03:00,46.0,40.0,29.92,NNW,332,0.0,2.0,79,0.00,,,0.00,weatherlink.com 1.10,2013-09-23 07:03:00,
2013-09-23 03:18:00,45.6,40.0,29.93,NW,319,0.0,1.0,80,0.00,,,0.00,weatherlink.com 1.10,2013-09-23 07:18:00,
2013-09-23 03:34:00,45.7,39.0,29.92,WNW,285,0.0,3.0,78,0.00,,,0.00,weatherlink.com 1.10,2013-09-23 07:34:00,
2013-09-23 03:49:00,46.0,40.0,29.93,NNW,335,0.0,3.0,78,0.00,,,0.00,weatherlink.com 1.10,2013-09-23 07:49:00,
2013-09-23 04:04:00,45.5,39.0,29.93,North,356,1.0,2.0,79,0.00,,,0.00,weatherlink.com 1.10,2013-09-23 08:04:00,
2013-09-23 04:19:00,45.2,40.0,29.93,North,5,2.0,4.0,81,0.00,,,0.00,weatherlink.com 1.10,2013-09-23 08:19:00,
2013-09-23 04:34:00,45.2,40.0,29.93,NE,40,0.0,2.0,81,0.00,,,0.00,weatherlink.com 1.10,2013-09-23 08:34:00,
2013-09-23 04:49:00,44.9,39.0,29.94,NNW,328,0.0,2.0,81,0.00,,,0.00,weatherlink.com 1.10,2013-09-23 08:49:00,
2013-09-23 05:04:00,44.7,40.0,29.94,NNW,327,0.0,1.0,82,0.00,,,0.00,weatherlink.com 1.10,2013-09-23 09:04:00,
2013-09-23 05:19:00,44.5,39.0,29.95,NNW,343,2.0,3.0,82,0.00,,,0.00,weatherlink.com 1.10,2013-09-23 09:19:00,
2013-09-23 05:34:00,44.9,39.0,29.95,NW,317,0.0,3.0,81,0.00,,,0.00,weatherlink.com 1.10,2013-09-23 09:34:00,
2013-09-23 05:49:00,44.7,39.0,29.96,NW,311,0.0,8.0,80,0.00,,,0.00,weatherlink.com 1.10,2013-09-23 09:49:00,
2013-09-23 06:19:00,44.8,38.0,29.97,NNE,16,3.0,7.0,77,0.00,,,0.00,weatherlink.com 1.10,2013-09-23 10:19:00,
2013-09-23 06:34:00,44.4,38.0,29.98,WNW,293,0.0,4.0,78,0.00,,,0.00,weatherlink.com 1.10,2013-09-23 10:34:00,
2013-09-23 06:49:00,45.2,38.0,29.98,NNW,331,1.0,6.0,76,0.00,,,0.00,weatherlink.com 1.10,2013-09-23 10:49:00,
2013-09-23 07:04:00,45.8,39.0,29.99,NW,315,0.0,4.0,76,0.00,,,0.00,weatherlink.com 1.10,2013-09-23 11:04:00,
2013-09-23 07:19:00,45.9,39.0,30.00,NW,323,0.0,6.0,76,0.00,,,0.00,weatherlink.com 1.10,2013-09-23 11:19:00,
2013-09-23 07:34:00,46.0,39.0,30.00,NW,324,2.0,7.0,75,0.00,,,0.00,weatherlink.com 1.10,2013-09-23 11:34:00,
2013-09-23 07:49:00,46.0,38.0,30.00,WNW,294,1.0,5.0,74,0.00,,,0.00,weatherlink.com 1.10,2013-09-23 11:49:00,
2013-09-23 08:04:00,46.3,38.0,30.01,NW,320,1.0,5.0,74,0.00,,,0.00,weatherlink.com 1.10,2013-09-23 12:04:00,
2013-09-23 08:19:00,46.5,39.0,30.01,NW,316,0.0,6.0,74,0.00,,,0.00,weatherlink.com 1.10,2013-09-23 12:19:00,
2013-09-23 08:34:00,46.8,39.0,30.02,NW,313,0.0,5.0,73,0.00,,,0.00,weatherlink.com 1.10,2013-09-23 12:34:00,
2013-09-23 08:49:00,46.8,39.0,30.02,NNW,327,3.0,4.0,73,0.00,,,0.00,weatherlink.com 1.10,2013-09-23 12:49:00,
2013-09-23 09:04:00,46.7,39.0,30.02,NW,316,3.0,4.0,74,0.00,,,0.00,weatherlink.com 1.10,2013-09-23 13:04:00,
2013-09-23 09:19:00,46.8,39.0,30.03,NW,311,0.0,4.0,75,0.00,,,0.00,weatherlink.com 1.10,2013-09-23 13:19:00,
2013-09-23 09:34:00,46.9,39.0,30.03,NW,317,2.0,5.0,74,0.00,,,0.00,weatherlink.com 1.10,2013-09-23 13:34:00,
2013-09-23 09:49:00,47.6,40.0,30.03,NW,321,1.0,4.0,74,0.00,,,0.00,weatherlink.com 1.10,2013-09-23 13:49:00,
2013-09-23 10:04:00,48.0,40.0,30.04,West,273,1.0,9.0,74,0.00,,,0.00,weatherlink.com 1.10,2013-09-23 14:04:00,
2013-09-23 10:19:00,47.8,40.0,30.04,WNW,282,0.0,6.0,75,0.00,,,0.00,weatherlink.com 1.10,2013-09-23 14:19:00,
2013-09-23 10:34:00,49.1,40.0,30.04,WNW,285,1.0,4.0,72,0.00,,,0.00,weatherlink.com 1.10,2013-09-23 14:34:00,
2013-09-23 10:50:00,49.4,39.0,30.04,NW,320,0.0,9.0,68,0.00,,,0.00,weatherlink.com 1.10,2013-09-23 14:50:00,
2013-09-23 11:05:00,49.9,39.0,30.04,North,3,2.0,7.0,67,0.00,,,0.00,weatherlink.com 1.10,2013-09-23 15:05:00,
2013-09-23 11:20:00,50.3,40.0,30.04,North,349,2.0,4.0,67,0.00,,,0.00,weatherlink.com 1.10,2013-09-23 15:20:00,
2013-09-23 11:35:00,50.5,40.0,30.04,NNW,330,2.0,5.0,68,0.00,,,0.00,weatherlink.com 1.10,2013-09-23 15:35:00,
2013-09-23 11:50:00,50.1,40.0,30.04,NW,320,1.0,5.0,69,0.00,,,0.00,weatherlink.com 1.10,2013-09-23 15:50:00,
2013-09-23 12:05:00,50.7,41.0,30.04,NNW,328,1.0,6.0,69,0.00,,,0.00,weatherlink.com 1.10,2013-09-23 16:05:00,
2013-09-23 12:20:00,51.1,40.0,30.03,NW,325,2.0,7.0,67,0.00,,,0.00,weatherlink.com 1.10,2013-09-23 16:20:00,
2013-09-23 12:35:00,51.1,40.0,30.03,NNW,340,1.0,6.0,67,0.00,,,0.00,weatherlink.com 1.10,2013-09-23 16:35:00,
2013-09-23 12:50:00,51.8,41.0,30.03,NW,315,3.0,7.0,68,0.00,,,0.00,weatherlink.com 1.10,2013-09-23 16:50:00,
2013-09-23 13:05:00,52.0,41.0,30.03,NNE,23,3.0,8.0,66,0.00,,,0.00,weatherlink.com 1.10,2013-09-23 17:05:00,
2013-09-23 13:20:00,53.4,41.0,30.03,North,357,7.0,9.0,63,0.00,,,0.00,weatherlink.com 1.10,2013-09-23 17:20:00,
2013-09-23 13:35:00,53.2,42.0,30.02,North,11,6.0,9.0,66,0.00,,,0.00,weatherlink.com 1.10,2013-09-23 17:35:00,
2013-09-23 13:50:00,54.2,41.0,30.02,North,2,7.0,8.0,62,0.00,,,0.00,weatherlink.com 1.10,2013-09-23 17:50:00,
2013-09-23 14:05:00,54.2,42.0,30.02,North,352,2.0,8.0,64,0.00,,,0.00,weatherlink.com 1.10,2013-09-23 18:05:00,
2013-09-23 14:20:00,54.3,41.0,30.02,WNW,292,4.0,9.0,62,0.00,,,0.00,weatherlink.com 1.10,2013-09-23 18:20:00,
2013-09-23 14:35:00,54.8,41.0,30.02,NNW,344,6.0,12.0,61,0.00,,,0.00,weatherlink.com 1.10,2013-09-23 18:35:00,
2013-09-23 14:50:00,55.2,42.0,30.01,NNW,332,2.0,6.0,62,0.00,,,0.00,weatherlink.com 1.10,2013-09-23 18:50:00,
2013-09-23 15:05:00,54.6,41.0,30.01,NNW,348,3.0,11.0,60,0.00,,,0.00,weatherlink.com 1.10,2013-09-23 19:05:00,
2013-09-23 15:20:00,54.7,42.0,30.01,WNW,296,1.0,8.0,63,0.00,,,0.00,weatherlink.com 1.10,2013-09-23 19:20:00,
2013-09-23 15:35:00,54.2,41.0,30.01,NNW,331,3.0,9.0,62,0.00,,,0.00,weatherlink.com 1.10,2013-09-23 19:35:00,
2013-09-23 15:50:00,53.8,41.0,30.01,WNW,288,2.0,9.0,63,0.00,,,0.00,weatherlink.com 1.10,2013-09-23 19:50:00,
2013-09-23 16:05:00,53.4,41.0,30.01,North,354,1.0,10.0,64,0.00,,,0.00,weatherlink.com 1.10,2013-09-23 20:05:00,
2013-09-23 16:20:00,53.3,41.0,30.01,NNW,346,4.0,11.0,63,0.00,,,0.00,weatherlink.com 1.10,2013-09-23 20:20:00,
2013-09-23 16:35:00,54.1,42.0,30.01,North,1,2.0,7.0,63,0.00,,,0.00,weatherlink.com 1.10,2013-09-23 20:35:00,
2013-09-23 16:50:00,54.3,42.0,30.01,SW,229,2.0,9.0,64,0.00,,,0.00,weatherlink.com 1.10,2013-09-23 20:50:00,
2013-09-23 17:05:00,53.4,42.0,30.01,NNW,332,3.0,9.0,65,0.00,,,0.00,weatherlink.com 1.10,2013-09-23 21:05:00,
2013-09-23 17:20:00,53.3,42.0,30.02,NW,325,4.0,5.0,66,0.00,,,0.00,weatherlink.com 1.10,2013-09-23 21:20:00,
2013-09-23 17:35:00,52.7,41.0,30.02,NNW,329,1.0,7.0,65,0.00,,,0.00,weatherlink.com 1.10,2013-09-23 21:35:00,
2013-09-23 17:50:00,52.3,41.0,30.02,North,354,2.0,7.0,66,0.00,,,0.00,weatherlink.com 1.10,2013-09-23 21:50:00,
2013-09-23 18:05:00,51.8,41.0,30.03,WSW,242,1.0,4.0,68,0.00,,,0.00,weatherlink.com 1.10,2013-09-23 22:05:00,
2013-09-23 18:20:00,51.6,41.0,30.03,NW,313,0.0,6.0,68,0.00,,,0.00,weatherlink.com 1.10,2013-09-23 22:20:00,
2013-09-23 18:50:00,50.8,41.0,30.03,NW,311,0.0,3.0,70,0.00,,,0.00,weatherlink.com 1.10,2013-09-23 22:50:00,
2013-09-23 19:05:00,50.3,41.0,30.03,West,269,0.0,3.0,71,0.00,,,0.00,weatherlink.com 1.10,2013-09-23 23:05:00,
2013-09-23 19:20:00,50.0,41.0,30.03,NW,324,1.0,3.0,71,0.00,,,0.00,weatherlink.com 1.10,2013-09-23 23:20:00,
2013-09-23 19:35:00,49.9,41.0,30.03,West,260,1.0,3.0,71,0.00,,,0.00,weatherlink.com 1.10,2013-09-23 23:35:00,
2013-09-23 19:50:00,49.6,41.0,30.04,WNW,297,0.0,2.0,71,0.00,,,0.00,weatherlink.com 1.10,2013-09-23 23:50:00,
2013-09-23 20:05:00,49.5,41.0,30.04,WNW,300,0.0,3.0,72,0.00,,,0.00,weatherlink.com 1.10,2013-09-24 00:05:00,
2013-09-23 20:20:00,49.5,41.0,30.05,West,271,0.0,2.0,72,0.00,,,0.00,weatherlink.com 1.10,2013-09-24 00:20:00,
2013-09-23 20:35:00,49.5,41.0,30.05,NW,313,0.0,2.0,72,0.00,,,0.00,weatherlink.com 1.10,2013-09-24 00:35:00,
2013-09-23 20:50:00,49.5,41.0,30.05,West,276,0.0,2.0,72,0.00,,,0.00,weatherlink.com 1.10,2013-09-24 00:50:00,
2013-09-23 21:05:00,49.7,41.0,30.05,West,269,1.0,4.0,71,0.00,,,0.00,weatherlink.com 1.10,2013-09-24 01:05:00,
2013-09-23 21:20:00,49.9,41.0,30.05,West,275,1.0,2.0,71,0.00,,,0.00,weatherlink.com 1.10,2013-09-24 01:20:00,
2013-09-23 21:35:00,50.0,41.0,30.04,NW,321,0.0,3.0,70,0.00,,,0.00,weatherlink.com 1.10,2013-09-24 01:35:00,
2013-09-23 21:50:00,50.1,41.0,30.04,NW,308,0.0,2.0,71,0.00,,,0.00,weatherlink.com 1.10,2013-09-24 01:50:00,
2013-09-23 22:06:00,50.4,41.0,30.04,NNW,340,0.0,5.0,70,0.00,,,0.00,weatherlink.com 1.10,2013-09-24 02:06:00,
2013-09-23 22:21:00,50.8,41.0,30.04,SW,226,3.0,4.0,69,0.00,,,0.00,weatherlink.com 1.10,2013-09-24 02:21:00,
2013-09-23 22:36:00,50.8,41.0,30.04,WNW,284,1.0,5.0,69,0.00,,,0.00,weatherlink.com 1.10,2013-09-24 02:36:00,
2013-09-23 22:51:00,50.7,41.0,30.04,NW,314,0.0,5.0,69,0.00,,,0.00,weatherlink.com 1.10,2013-09-24 02:51:00,
2013-09-23 23:06:00,50.6,41.0,30.04,NNW,344,0.0,4.0,69,0.00,,,0.00,weatherlink.com 1.10,2013-09-24 03:06:00,
2013-09-23 23:21:00,50.6,41.0,30.04,NW,320,0.0,2.0,69,0.00,,,0.00,weatherlink.com 1.10,2013-09-24 03:21:00,
2013-09-23 23:36:00,50.7,41.0,30.03,NW,323,0.0,5.0,69,0.00,,,0.00,weatherlink.com 1.10,2013-09-24 03:36:00,
2013-09-23 23:51:00,50.6,41.0,30.03,WNW,285,0.0,5.0,69,0.00,,,0.00,weatherlink.com 1.10,2013-09-24 03:51:00,